Time;durP1;ratioP1;P1;durP2;ratioP2;P2;SDS_P1;SDS_P2;PMS_P1;PMS_P2;Temp;Humidity;BMP_temperature;BMP_pressure;BME280_temperature;BME280_humidity;BME280_pressure;Samples;Min_cycle;Max_cycle;Signal;HPM_P1;HPM_P2
2023/03/15 00:02:22;;;;;;;6.07;0.87;;;;;;;;;;5001214;28;20195;-58
2023/03/15 00:04:51;;;;;;;4.70;0.93;;;;;;;;;;5010519;28;20037;-58
2023/03/15 00:07:18;;;;;;;5.03;1.20;;;;;;;;;;5011940;28;20572;-58
2023/03/15 00:09:46;;;;;;;6.38;1.38;;;;;;;;;;5010988;28;20480;-58
2023/03/15 00:12:14;;;;;;;4.40;0.77;;;;;;;;;;5014292;28;20041;-58
2023/03/15 00:15:00;;;;;;;5.20;1.17;;;;;;;;;;5006028;28;20055;-58
2023/03/15 00:17:28;;;;;;;4.28;0.88;;;;;;;;;;5014584;28;20051;-58
2023/03/15 00:19:55;;;;;;;4.57;1.10;;;;;;;;;;5001292;28;20045;-58
2023/03/15 00:22:23;;;;;;;5.25;1.10;;;;;;;;;;5008338;28;20055;-58
2023/03/15 00:24:51;;;;;;;4.22;0.95;;;;;;;;;;5002943;28;20084;-58
2023/03/15 00:27:18;;;;;;;9.73;1.33;;;;;;;;;;5007103;28;20413;-58
2023/03/15 00:29:46;;;;;;;6.68;1.63;;;;;;;;;;5020384;28;20164;-58
2023/03/15 00:32:15;;;;;;;6.00;1.77;;;;;;;;;;5011763;28;20116;-58
2023/03/15 00:34:48;;;;;;;4.47;1.13;;;;;;;;;;5015354;28;20571;-58
2023/03/15 00:37:18;;;;;;;10.75;1.90;;;;;;;;;;5004557;28;20562;-58
2023/03/15 00:39:46;;;;;;;6.70;1.40;;;;;;;;;;5020232;28;20046;-58
2023/03/15 00:42:14;;;;;;;7.18;1.30;;;;;;;;;;5006270;28;20068;-58
2023/03/15 00:44:42;;;;;;;6.57;1.50;;;;;;;;;;5020706;28;20049;-58
2023/03/15 00:47:10;;;;;;;7.18;2.08;;;;;;;;;;5016127;28;20052;-58
2023/03/15 00:49:39;;;;;;;4.75;1.23;;;;;;;;;;5011186;28;20076;-58
2023/03/15 00:52:07;;;;;;;6.27;1.70;;;;;;;;;;5015786;28;20494;-58
2023/03/15 00:54:35;;;;;;;5.75;1.55;;;;;;;;;;4318476;28;10000617;-57
2023/03/15 00:57:03;;;;;;;5.90;1.90;;;;;;;;;;5016167;28;20057;-58
2023/03/15 00:59:33;;;;;;;10.00;1.92;;;;;;;;;;5011633;28;20045;-58
2023/03/15 01:02:03;;;;;;;7.90;2.42;;;;;;;;;;5019291;28;20111;-58
2023/03/15 01:04:31;;;;;;;6.38;2.28;;;;;;;;;;5015441;28;20037;-57
2023/03/15 01:07:00;;;;;;;6.18;2.00;;;;;;;;;;5015878;28;20138;-58
2023/03/15 01:09:29;;;;;;;7.30;1.97;;;;;;;;;;5008249;28;20068;-58
2023/03/15 01:11:57;;;;;;;6.68;2.30;;;;;;;;;;5030411;28;20041;-57
2023/03/15 01:14:25;;;;;;;8.40;2.45;;;;;;;;;;5012402;28;20029;-58
2023/03/15 01:16:53;;;;;;;9.00;2.20;;;;;;;;;;5029459;28;20103;-60
2023/03/15 01:19:21;;;;;;;6.45;2.13;;;;;;;;;;5009477;28;20045;-58
2023/03/15 01:21:48;;;;;;;9.00;2.50;;;;;;;;;;5018688;28;20041;-60
2023/03/15 01:24:17;;;;;;;5.93;1.85;;;;;;;;;;5025304;28;20044;-59
2023/03/15 01:26:45;;;;;;;5.72;1.60;;;;;;;;;;5027516;28;20126;-59
2023/03/15 01:29:12;;;;;;;6.43;1.67;;;;;;;;;;5012871;28;20045;-59
2023/03/15 01:31:40;;;;;;;7.53;2.08;;;;;;;;;;5024840;28;20124;-59
2023/03/15 01:34:09;;;;;;;6.83;1.70;;;;;;;;;;5002938;28;20720;-59
2023/03/15 01:36:36;;;;;;;6.32;1.85;;;;;;;;;;5010367;28;20044;-59
2023/03/15 01:39:04;;;;;;;6.57;1.75;;;;;;;;;;5007827;28;20037;-59
2023/03/15 01:41:33;;;;;;;6.18;1.80;;;;;;;;;;5013930;28;20041;-60
2023/03/15 01:44:00;;;;;;;9.15;2.05;;;;;;;;;;4997904;28;20095;-59
2023/03/15 01:46:32;;;;;;;7.27;1.97;;;;;;;;;;5007885;28;20121;-59
2023/03/15 01:49:02;;;;;;;7.88;2.05;;;;;;;;;;5010516;28;20041;-59
2023/03/15 01:51:34;;;;;;;5.65;2.10;;;;;;;;;;5012015;28;20068;-59
2023/03/15 01:54:04;;;;;;;7.10;2.10;;;;;;;;;;5011541;28;20480;-59
2023/03/15 01:56:34;;;;;;;6.38;1.75;;;;;;;;;;5005214;28;20037;-59
2023/03/15 01:59:04;;;;;;;5.97;1.70;;;;;;;;;;5012928;28;20072;-59
2023/03/15 02:01:32;;;;;;;6.07;1.80;;;;;;;;;;5009681;28;20048;-59
2023/03/15 02:04:03;;;;;;;6.15;1.80;;;;;;;;;;5021545;28;20136;-60
2023/03/15 02:06:33;;;;;;;5.78;2.00;;;;;;;;;;5005427;28;20652;-59
2023/03/15 02:09:04;;;;;;;9.27;1.88;;;;;;;;;;5019698;28;20095;-59
2023/03/15 02:11:31;;;;;;;8.37;2.33;;;;;;;;;;5021424;28;20041;-60
2023/03/15 02:14:02;;;;;;;8.07;2.20;;;;;;;;;;5011482;28;21113;-59
2023/03/15 02:16:30;;;;;;;7.65;2.40;;;;;;;;;;5006585;28;20112;-59
2023/03/15 02:18:58;;;;;;;9.65;2.28;;;;;;;;;;5027190;28;20049;-59
2023/03/15 02:21:32;;;;;;;7.38;2.10;;;;;;;;;;5004315;28;20052;-59
2023/03/15 02:24:06;;;;;;;6.70;1.70;;;;;;;;;;5011219;28;20695;-60
2023/03/15 02:26:41;;;;;;;7.47;1.73;;;;;;;;;;5020000;28;20120;-59
2023/03/15 02:29:10;;;;;;;8.02;2.50;;;;;;;;;;5011390;28;20120;-57
2023/03/15 02:31:38;;;;;;;6.68;2.08;;;;;;;;;;5018624;28;20136;-59
2023/03/15 02:34:07;;;;;;;7.45;2.40;;;;;;;;;;5008398;28;20048;-60
2023/03/15 02:36:35;;;;;;;7.07;1.87;;;;;;;;;;5018630;28;20144;-56
2023/03/15 02:39:12;;;;;;;8.95;2.50;;;;;;;;;;4999226;28;20116;-59
2023/03/15 02:41:41;;;;;;;7.65;2.13;;;;;;;;;;5026247;28;20046;-60
2023/03/15 02:44:12;;;;;;;9.88;3.10;;;;;;;;;;5011802;28;20076;-60
2023/03/15 02:46:40;;;;;;;10.27;2.60;;;;;;;;;;5014443;28;20041;-59
2023/03/15 02:49:08;;;;;;;6.17;1.70;;;;;;;;;;5024534;28;20051;-59
2023/03/15 02:51:35;;;;;;;8.32;2.33;;;;;;;;;;5014199;28;20044;-59
2023/03/15 02:54:03;;;;;;;8.43;2.15;;;;;;;;;;5033343;28;20506;-59
2023/03/15 02:56:32;;;;;;;13.63;2.55;;;;;;;;;;5025911;28;20073;-59
2023/03/15 02:58:59;;;;;;;7.80;2.13;;;;;;;;;;5015689;28;20069;-59
2023/03/15 03:01:28;;;;;;;7.27;2.40;;;;;;;;;;5018306;28;20590;-60
2023/03/15 03:03:56;;;;;;;7.43;2.42;;;;;;;;;;5024295;28;20060;-58
2023/03/15 03:06:24;;;;;;;8.52;2.53;;;;;;;;;;5016544;28;20033;-59
2023/03/15 03:08:51;;;;;;;7.80;2.70;;;;;;;;;;5020948;28;20068;-60
2023/03/15 03:11:19;;;;;;;6.95;2.28;;;;;;;;;;5018108;28;20120;-59
2023/03/15 03:13:46;;;;;;;8.50;2.50;;;;;;;;;;5020285;28;20064;-59
2023/03/15 03:16:16;;;;;;;9.80;2.95;;;;;;;;;;5009291;28;20175;-59
2023/03/15 03:18:45;;;;;;;7.68;2.30;;;;;;;;;;5014606;28;20046;-59
2023/03/15 03:21:13;;;;;;;7.88;2.25;;;;;;;;;;5004830;28;21070;-59
2023/03/15 03:23:41;;;;;;;7.22;2.08;;;;;;;;;;5023064;28;20492;-59
2023/03/15 03:26:15;;;;;;;7.17;2.20;;;;;;;;;;5027003;28;20061;-59
2023/03/15 03:28:44;;;;;;;7.93;2.13;;;;;;;;;;5019462;28;20119;-59
2023/03/15 03:31:16;;;;;;;8.52;2.13;;;;;;;;;;5023346;28;20462;-59
2023/03/15 03:33:45;;;;;;;8.20;2.22;;;;;;;;;;5020358;28;20381;-60
2023/03/15 03:36:13;;;;;;;8.35;2.25;;;;;;;;;;5012155;28;20099;-59
2023/03/15 03:38:41;;;;;;;7.47;2.07;;;;;;;;;;5016303;28;20048;-60
2023/03/15 03:41:09;;;;;;;6.80;1.75;;;;;;;;;;5000774;28;20139;-60
2023/03/15 03:43:37;;;;;;;7.30;2.40;;;;;;;;;;5026400;28;20088;-59
2023/03/15 03:46:06;;;;;;;7.82;2.50;;;;;;;;;;5013844;28;20129;-60
2023/03/15 03:48:34;;;;;;;8.90;2.53;;;;;;;;;;5024933;28;20052;-60
2023/03/15 03:51:03;;;;;;;7.83;2.80;;;;;;;;;;5019430;28;20136;-60
2023/03/15 03:53:30;;;;;;;7.47;2.20;;;;;;;;;;5021397;28;20076;-59
2023/03/15 03:55:58;;;;;;;7.97;2.67;;;;;;;;;;5014904;28;20116;-59
2023/03/15 03:58:26;;;;;;;7.85;2.55;;;;;;;;;;5011897;28;20542;-59
2023/03/15 04:00:54;;;;;;;8.45;2.05;;;;;;;;;;5031559;28;20592;-59
2023/03/15 04:03:26;;;;;;;8.63;2.87;;;;;;;;;;5018622;28;20072;-59
2023/03/15 04:05:53;;;;;;;8.40;2.13;;;;;;;;;;5022716;28;20037;-60
2023/03/15 04:08:23;;;;;;;8.40;2.70;;;;;;;;;;5016743;28;20057;-59
2023/03/15 04:10:52;;;;;;;12.65;2.85;;;;;;;;;;5023198;28;20120;-59
2023/03/15 04:13:19;;;;;;;7.35;2.58;;;;;;;;;;5014829;28;20052;-59
2023/03/15 04:15:47;;;;;;;8.00;2.37;;;;;;;;;;5010786;28;20084;-59
2023/03/15 04:18:15;;;;;;;8.32;2.78;;;;;;;;;;5015039;28;20037;-59
2023/03/15 04:20:45;;;;;;;7.68;2.55;;;;;;;;;;5020052;28;20040;-59
2023/03/15 04:23:13;;;;;;;10.50;2.38;;;;;;;;;;5003177;28;20060;-59
2023/03/15 04:25:42;;;;;;;7.93;2.50;;;;;;;;;;5017565;28;20526;-59
2023/03/15 04:28:10;;;;;;;9.43;2.73;;;;;;;;;;5011489;28;20946;-59
2023/03/15 04:30:38;;;;;;;9.75;2.88;;;;;;;;;;5028490;28;20084;-59
2023/03/15 04:33:06;;;;;;;9.43;2.67;;;;;;;;;;5020045;28;20119;-59
2023/03/15 04:35:34;;;;;;;7.80;2.45;;;;;;;;;;5010576;28;20719;-59
2023/03/15 04:38:02;;;;;;;7.78;2.13;;;;;;;;;;5011372;28;20041;-60
2023/03/15 04:40:33;;;;;;;6.77;2.20;;;;;;;;;;5026189;28;20053;-60
2023/03/15 04:43:04;;;;;;;7.15;2.33;;;;;;;;;;5023831;28;20049;-59
2023/03/15 04:45:31;;;;;;;9.82;2.35;;;;;;;;;;5013999;28;20443;-60
2023/03/15 04:48:00;;;;;;;9.48;2.33;;;;;;;;;;5017327;28;20712;-59
2023/03/15 04:50:29;;;;;;;8.57;2.72;;;;;;;;;;5023976;28;20464;-60
2023/03/15 04:52:57;;;;;;;8.07;2.07;;;;;;;;;;4998768;28;20108;-60
2023/03/15 04:55:25;;;;;;;9.55;2.50;;;;;;;;;;5004751;28;20087;-59
2023/03/15 04:57:52;;;;;;;8.88;2.78;;;;;;;;;;5021829;28;20512;-58
2023/03/15 05:00:21;;;;;;;7.05;2.15;;;;;;;;;;5024736;28;20073;-58
2023/03/15 05:02:53;;;;;;;7.80;2.28;;;;;;;;;;5021521;28;20048;-58
2023/03/15 05:05:22;;;;;;;6.93;2.00;;;;;;;;;;5026584;28;20187;-59
2023/03/15 05:07:50;;;;;;;10.80;2.25;;;;;;;;;;5016847;28;20049;-58
2023/03/15 05:10:18;;;;;;;9.25;2.42;;;;;;;;;;5023847;28;20041;-60
2023/03/15 05:12:46;;;;;;;7.63;2.40;;;;;;;;;;5014319;28;20515;-58
2023/03/15 05:15:13;;;;;;;9.10;2.40;;;;;;;;;;5018627;28;20042;-59
2023/03/15 05:17:45;;;;;;;9.73;2.50;;;;;;;;;;5017172;28;20068;-59
2023/03/15 05:20:13;;;;;;;8.13;2.80;;;;;;;;;;5012494;28;20069;-59
2023/03/15 05:22:41;;;;;;;9.90;2.35;;;;;;;;;;5009921;28;20867;-59
2023/03/15 05:25:09;;;;;;;9.07;2.65;;;;;;;;;;5019860;28;20072;-58
2023/03/15 05:27:37;;;;;;;8.70;2.85;;;;;;;;;;5012067;28;20056;-59
2023/03/15 05:30:06;;;;;;;7.47;2.40;;;;;;;;;;5027202;28;20044;-59
2023/03/15 05:32:36;;;;;;;7.93;2.45;;;;;;;;;;5004485;28;20451;-58
2023/03/15 05:35:08;;;;;;;8.35;2.95;;;;;;;;;;5018588;28;20091;-59
2023/03/15 05:37:36;;;;;;;8.60;2.90;;;;;;;;;;5023609;28;20363;-58
2023/03/15 05:40:06;;;;;;;9.27;3.03;;;;;;;;;;5001454;28;20045;-59
2023/03/15 05:42:34;;;;;;;9.57;2.70;;;;;;;;;;5023981;28;20081;-59
2023/03/15 05:45:02;;;;;;;12.25;3.25;;;;;;;;;;5009152;28;20092;-59
2023/03/15 05:47:29;;;;;;;8.23;2.35;;;;;;;;;;5027593;28;20119;-59
2023/03/15 05:50:00;;;;;;;11.40;2.50;;;;;;;;;;5015302;28;20053;-59
2023/03/15 05:52:29;;;;;;;7.13;2.45;;;;;;;;;;5021604;28;20073;-58
2023/03/15 05:54:56;;;;;;;6.37;2.03;;;;;;;;;;5012602;28;20045;-58
2023/03/15 05:57:25;;;;;;;9.57;2.53;;;;;;;;;;5015320;28;20113;-59
2023/03/15 05:59:53;;;;;;;7.55;2.78;;;;;;;;;;5019193;28;22773;-59
2023/03/15 06:02:21;;;;;;;7.40;2.72;;;;;;;;;;5019666;28;20633;-59
2023/03/15 06:04:49;;;;;;;7.55;2.58;;;;;;;;;;5006757;28;20128;-59
2023/03/15 06:07:17;;;;;;;8.93;2.70;;;;;;;;;;5020439;28;20499;-58
2023/03/15 06:09:47;;;;;;;8.65;2.80;;;;;;;;;;5021559;28;20069;-59
2023/03/15 06:12:14;;;;;;;9.25;2.60;;;;;;;;;;5029771;28;20605;-59
2023/03/15 06:14:42;;;;;;;7.65;2.67;;;;;;;;;;5019312;28;20029;-59
2023/03/15 06:17:10;;;;;;;8.85;2.70;;;;;;;;;;5020857;28;20080;-59
2023/03/15 06:19:37;;;;;;;8.80;2.67;;;;;;;;;;5014769;28;20657;-59
2023/03/15 06:22:05;;;;;;;7.90;2.17;;;;;;;;;;5024429;28;20092;-59
2023/03/15 06:24:32;;;;;;;8.57;2.28;;;;;;;;;;5019298;28;20427;-59
2023/03/15 06:27:02;;;;;;;9.90;2.70;;;;;;;;;;5029920;28;20120;-59
2023/03/15 06:29:30;;;;;;;9.35;2.88;;;;;;;;;;5015088;28;20550;-59
2023/03/15 06:31:58;;;;;;;8.87;2.53;;;;;;;;;;5014687;28;20053;-59
2023/03/15 06:34:25;;;;;;;8.68;2.13;;;;;;;;;;5016547;28;20030;-59
2023/03/15 06:36:53;;;;;;;13.65;2.67;;;;;;;;;;5016676;28;20639;-58
2023/03/15 06:39:20;;;;;;;7.63;2.63;;;;;;;;;;5023527;28;20145;-59
2023/03/15 06:41:49;;;;;;;9.60;2.78;;;;;;;;;;5013872;28;20037;-59
2023/03/15 06:44:20;;;;;;;7.70;2.37;;;;;;;;;;5015462;28;20069;-59
2023/03/15 06:46:48;;;;;;;8.73;2.10;;;;;;;;;;5018810;28;20115;-59
2023/03/15 06:49:15;;;;;;;8.80;3.08;;;;;;;;;;5021817;28;20127;-58
2023/03/15 06:51:44;;;;;;;8.82;3.05;;;;;;;;;;5027555;28;20073;-59
2023/03/15 06:54:11;;;;;;;7.30;2.55;;;;;;;;;;5013698;28;20083;-59
2023/03/15 06:56:39;;;;;;;9.33;2.87;;;;;;;;;;5018968;28;20044;-59
2023/03/15 06:59:07;;;;;;;9.93;2.80;;;;;;;;;;5008230;28;20120;-59
2023/03/15 07:01:36;;;;;;;9.45;2.75;;;;;;;;;;5028386;28;20568;-59
2023/03/15 07:04:04;;;;;;;8.38;3.03;;;;;;;;;;5027009;28;20037;-58
2023/03/15 07:06:35;;;;;;;10.02;2.78;;;;;;;;;;5012826;28;20054;-59
2023/03/15 07:09:02;;;;;;;8.17;2.97;;;;;;;;;;5004107;28;20042;-59
2023/03/15 07:11:31;;;;;;;9.68;2.90;;;;;;;;;;4996264;28;20038;-59
2023/03/15 07:13:58;;;;;;;9.60;2.38;;;;;;;;;;4991882;28;20097;-59
2023/03/15 07:16:26;;;;;;;10.90;3.10;;;;;;;;;;5006599;28;20076;-59
2023/03/15 07:18:58;;;;;;;11.05;3.13;;;;;;;;;;5004555;28;20099;-59
2023/03/15 07:21:28;;;;;;;10.23;3.53;;;;;;;;;;4994664;28;20432;-59
2023/03/15 07:23:56;;;;;;;10.50;3.05;;;;;;;;;;5004844;28;20133;-58
2023/03/15 07:26:23;;;;;;;9.80;3.30;;;;;;;;;;5008742;28;20116;-59
2023/03/15 07:28:51;;;;;;;12.35;3.00;;;;;;;;;;4994809;28;20078;-59
2023/03/15 07:31:19;;;;;;;10.65;3.00;;;;;;;;;;4997218;28;20137;-58
2023/03/15 07:33:47;;;;;;;8.43;2.67;;;;;;;;;;4988260;28;20066;-59
2023/03/15 07:36:15;;;;;;;9.93;2.75;;;;;;;;;;5002834;28;20045;-59
2023/03/15 07:38:43;;;;;;;9.07;2.70;;;;;;;;;;4989081;28;20061;-59
2023/03/15 07:41:11;;;;;;;9.00;2.72;;;;;;;;;;4997994;28;20566;-59
2023/03/15 07:43:38;;;;;;;8.50;2.75;;;;;;;;;;4998741;28;20409;-58
2023/03/15 07:46:06;;;;;;;10.20;3.20;;;;;;;;;;4996340;28;20132;-59
2023/03/15 07:48:35;;;;;;;6.88;2.40;;;;;;;;;;5001034;28;20104;-59
2023/03/15 07:51:22;;;;;;;9.88;2.60;;;;;;;;;;4999352;28;20053;-59
2023/03/15 07:53:50;;;;;;;9.23;2.40;;;;;;;;;;5009481;28;20739;-59
2023/03/15 07:56:17;;;;;;;8.50;2.67;;;;;;;;;;4978142;28;20069;-59
2023/03/15 07:58:46;;;;;;;8.90;2.43;;;;;;;;;;4991092;28;20062;-59
2023/03/15 08:01:14;;;;;;;9.20;2.72;;;;;;;;;;4987610;28;20052;-59
2023/03/15 08:03:41;;;;;;;8.18;2.25;;;;;;;;;;5002179;28;20386;-59
2023/03/15 08:06:09;;;;;;;8.57;2.15;;;;;;;;;;4983016;28;20141;-57
2023/03/15 08:08:38;;;;;;;9.40;2.58;;;;;;;;;;5004884;28;20538;-58
2023/03/15 08:11:06;;;;;;;7.27;2.00;;;;;;;;;;4997739;28;20470;-59
2023/03/15 08:13:34;;;;;;;7.05;2.30;;;;;;;;;;5009686;28;20078;-59
2023/03/15 08:16:02;;;;;;;8.25;2.47;;;;;;;;;;4997311;28;20085;-59
2023/03/15 08:18:30;;;;;;;8.48;2.13;;;;;;;;;;5004732;28;20286;-60
2023/03/15 08:20:58;;;;;;;10.32;2.80;;;;;;;;;;5003969;28;20078;-59
2023/03/15 08:23:25;;;;;;;8.80;2.50;;;;;;;;;;4995463;28;20050;-59
2023/03/15 08:25:54;;;;;;;14.00;1.85;;;;;;;;;;4996612;28;20033;-59
2023/03/15 08:28:22;;;;;;;6.07;2.03;;;;;;;;;;5008028;28;20053;-59
2023/03/15 08:30:49;;;;;;;7.18;2.00;;;;;;;;;;4998526;28;20145;-59
2023/03/15 08:33:17;;;;;;;6.18;2.08;;;;;;;;;;5005520;28;20073;-59
2023/03/15 08:35:45;;;;;;;5.60;1.40;;;;;;;;;;5000589;28;20382;-58
2023/03/15 08:38:13;;;;;;;7.03;1.63;;;;;;;;;;4986129;28;20045;-59
2023/03/15 08:40:41;;;;;;;7.53;1.55;;;;;;;;;;4995302;28;20065;-59
2023/03/15 08:43:11;;;;;;;6.57;1.40;;;;;;;;;;5005924;28;20065;-60
2023/03/15 08:45:39;;;;;;;6.32;1.55;;;;;;;;;;4999396;28;20037;-59
2023/03/15 08:48:27;;;;;;;5.50;0.93;;;;;;;;;;5002828;28;20038;-60
2023/03/15 08:50:55;;;;;;;4.93;0.95;;;;;;;;;;4306850;28;10000823;-59
2023/03/15 08:53:22;;;;;;;7.78;1.02;;;;;;;;;;4992812;28;20123;-59
2023/03/15 08:55:50;;;;;;;4.53;0.43;;;;;;;;;;4985254;28;20046;-60
2023/03/15 08:58:19;;;;;;;4.40;0.87;;;;;;;;;;4652910;28;10000053;-59
2023/03/15 09:00:48;;;;;;;4.78;0.93;;;;;;;;;;4965851;28;20088;-59
2023/03/15 09:03:16;;;;;;;5.13;1.00;;;;;;;;;;4977259;28;20041;-58
2023/03/15 09:05:44;;;;;;;5.00;0.87;;;;;;;;;;4993961;28;20098;-59
2023/03/15 09:08:12;;;;;;;4.50;0.75;;;;;;;;;;4976636;28;20058;-59
2023/03/15 09:10:40;;;;;;;2.75;0.50;;;;;;;;;;4974184;28;20045;-59
2023/03/15 09:13:08;;;;;;;4.15;0.60;;;;;;;;;;4968846;28;21919;-59
2023/03/15 09:15:37;;;;;;;3.40;0.40;;;;;;;;;;4976426;28;20448;-59
2023/03/15 09:18:05;;;;;;;3.97;0.40;;;;;;;;;;4978384;28;20058;-59
2023/03/15 09:20:33;;;;;;;3.45;0.32;;;;;;;;;;4975139;28;20046;-59
2023/03/15 09:23:01;;;;;;;2.17;0.30;;;;;;;;;;4977698;28;20092;-59
2023/03/15 09:25:28;;;;;;;3.65;0.45;;;;;;;;;;5009569;28;20069;-59
2023/03/15 09:27:56;;;;;;;2.70;0.22;;;;;;;;;;4995009;28;20615;-58
2023/03/15 09:30:24;;;;;;;2.73;0.40;;;;;;;;;;4992598;28;20045;-59
2023/03/15 09:32:54;;;;;;;3.75;0.50;;;;;;;;;;4994933;28;20042;-59
2023/03/15 09:35:22;;;;;;;2.22;0.20;;;;;;;;;;4996373;28;20049;-60
2023/03/15 09:37:50;;;;;;;3.10;0.40;;;;;;;;;;4997724;28;20061;-59
2023/03/15 09:40:19;;;;;;;3.85;0.55;;;;;;;;;;4986063;28;20069;-59
2023/03/15 09:42:54;;;;;;;3.37;0.40;;;;;;;;;;5006956;28;20045;-59
2023/03/15 09:45:27;;;;;;;2.70;0.43;;;;;;;;;;4975646;28;20513;-59
2023/03/15 09:48:02;;;;;;;1.58;0.20;;;;;;;;;;5003500;28;20049;-59
2023/03/15 09:50:31;;;;;;;3.63;0.28;;;;;;;;;;4998533;28;20730;-59
2023/03/15 09:53:00;;;;;;;3.15;0.40;;;;;;;;;;4990978;28;20153;-59
2023/03/15 09:55:28;;;;;;;4.60;0.50;;;;;;;;;;4990826;28;20427;-59
2023/03/15 09:57:58;;;;;;;2.55;0.30;;;;;;;;;;4995703;28;20679;-59
2023/03/15 10:00:27;;;;;;;3.53;0.40;;;;;;;;;;5005401;28;20057;-59
2023/03/15 10:02:58;;;;;;;8.82;0.82;;;;;;;;;;4963858;28;20060;-59
2023/03/15 10:05:32;;;;;;;4.57;0.63;;;;;;;;;;4975244;28;20911;-58
2023/03/15 10:07:59;;;;;;;4.30;0.40;;;;;;;;;;4986284;28;20062;-59
2023/03/15 10:10:30;;;;;;;5.55;0.38;;;;;;;;;;4983873;28;20361;-59
2023/03/15 10:13:02;;;;;;;2.63;0.30;;;;;;;;;;4981530;28;20057;-60
2023/03/15 10:15:36;;;;;;;2.38;0.30;;;;;;;;;;4994674;28;20509;-60
2023/03/15 10:18:20;;;;;;;5.05;0.50;;;;;;;;;;4953546;28;20417;-60
2023/03/15 10:20:53;;;;;;;2.37;0.20;;;;;;;;;;4987838;28;20132;-60
2023/03/15 10:23:23;;;;;;;2.83;0.30;;;;;;;;;;4985717;28;20060;-60
2023/03/15 10:25:51;;;;;;;5.25;0.40;;;;;;;;;;4981161;28;20074;-58
2023/03/15 10:28:23;;;;;;;3.58;0.38;;;;;;;;;;4994506;28;20108;-60
2023/03/15 10:30:52;;;;;;;1.95;0.22;;;;;;;;;;4988474;28;20483;-60
2023/03/15 10:33:26;;;;;;;2.80;0.30;;;;;;;;;;4995144;28;20056;-60
2023/03/15 10:35:55;;;;;;;2.42;0.30;;;;;;;;;;4986388;28;20048;-60
2023/03/15 10:38:39;;;;;;;2.63;0.38;;;;;;;;;;4988247;28;20054;-59
2023/03/15 10:41:07;;;;;;;3.10;0.40;;;;;;;;;;4989657;28;20116;-60
2023/03/15 10:43:38;;;;;;;2.13;0.20;;;;;;;;;;4981829;28;20107;-58
2023/03/15 10:46:07;;;;;;;3.67;0.40;;;;;;;;;;4995998;28;20076;-60
2023/03/15 10:48:36;;;;;;;2.35;0.30;;;;;;;;;;4988276;28;20477;-60
2023/03/15 10:51:15;;;;;;;3.33;0.55;;;;;;;;;;4985370;28;20775;-60
2023/03/15 10:53:52;;;;;;;2.90;0.30;;;;;;;;;;4988399;28;20129;-59
2023/03/15 10:56:21;;;;;;;3.13;0.50;;;;;;;;;;4990547;28;20045;-59
2023/03/15 10:58:51;;;;;;;3.50;0.50;;;;;;;;;;4636276;28;10000704;-59
2023/03/15 11:01:38;;;;;;;3.30;0.57;;;;;;;;;;4993896;28;20061;-59
2023/03/15 11:04:16;;;;;;;5.30;0.50;;;;;;;;;;4993315;28;20568;-59
2023/03/15 11:06:46;;;;;;;3.55;0.50;;;;;;;;;;4997128;28;20057;-59
2023/03/15 11:09:15;;;;;;;4.13;0.75;;;;;;;;;;5014401;28;20053;-59
2023/03/15 11:11:53;;;;;;;3.93;0.83;;;;;;;;;;5019053;28;20037;-59
2023/03/15 11:14:21;;;;;;;3.65;0.50;;;;;;;;;;5012167;28;20041;-59
2023/03/15 11:16:50;;;;;;;4.80;0.40;;;;;;;;;;5029032;28;20120;-59
2023/03/15 11:19:20;;;;;;;4.30;0.40;;;;;;;;;;5011512;28;20076;-59
2023/03/15 11:21:50;;;;;;;3.05;0.32;;;;;;;;;;5024590;28;20465;-59
2023/03/15 11:24:25;;;;;;;3.57;0.50;;;;;;;;;;5008451;28;20524;-59
2023/03/15 11:26:54;;;;;;;2.33;0.30;;;;;;;;;;5004336;28;20068;-59
2023/03/15 11:29:24;;;;;;;2.42;0.40;;;;;;;;;;5024782;28;20128;-59
2023/03/15 11:31:52;;;;;;;2.90;0.40;;;;;;;;;;5016095;28;20045;-59
2023/03/15 11:34:25;;;;;;;3.22;0.40;;;;;;;;;;5018272;28;20100;-59
2023/03/15 11:36:56;;;;;;;4.17;0.50;;;;;;;;;;5017905;28;20094;-59
2023/03/15 11:39:37;;;;;;;3.22;0.50;;;;;;;;;;5019146;28;20638;-59
2023/03/15 11:42:06;;;;;;;2.58;0.45;;;;;;;;;;4992408;28;20559;-59
2023/03/15 11:44:38;;;;;;;3.53;0.60;;;;;;;;;;5021313;28;20088;-59
2023/03/15 11:47:10;;;;;;;3.60;0.65;;;;;;;;;;5022806;28;20053;-59
2023/03/15 11:49:44;;;;;;;4.97;0.60;;;;;;;;;;5011623;28;20029;-58
2023/03/15 11:52:15;;;;;;;3.85;0.55;;;;;;;;;;5019195;28;20120;-58
2023/03/15 11:54:43;;;;;;;2.65;0.30;;;;;;;;;;5014273;28;20042;-60
2023/03/15 11:57:26;;;;;;;3.80;0.60;;;;;;;;;;5012137;28;20068;-58
2023/03/15 11:59:54;;;;;;;2.65;0.50;;;;;;;;;;4997221;28;20122;-60
2023/03/15 12:02:36;;;;;;;3.20;0.80;;;;;;;;;;5012414;28;20080;-58
2023/03/15 12:05:06;;;;;;;2.63;0.40;;;;;;;;;;5010022;28;20056;-58
2023/03/15 12:07:58;;;;;;;4.13;0.73;;;;;;;;;;5006713;28;20060;-58
2023/03/15 12:10:45;;;;;;;4.75;0.98;;;;;;;;;;5013602;28;20064;-58
2023/03/15 12:13:20;;;;;;;6.55;0.70;;;;;;;;;;4992846;28;20037;-58
2023/03/15 12:15:49;;;;;;;3.97;0.60;;;;;;;;;;5008911;28;20443;-58
2023/03/15 12:18:18;;;;;;;4.57;0.60;;;;;;;;;;5014749;28;20526;-57
2023/03/15 12:20:50;;;;;;;3.60;0.68;;;;;;;;;;5007194;28;20072;-58
2023/03/15 12:23:37;;;;;;;4.82;0.60;;;;;;;;;;5008874;28;20554;-58
2023/03/15 12:26:06;;;;;;;2.67;0.50;;;;;;;;;;5006394;28;20143;-58
2023/03/15 12:28:35;;;;;;;4.30;0.70;;;;;;;;;;5007662;28;20107;-58
2023/03/15 12:31:04;;;;;;;4.10;0.82;;;;;;;;;;5003595;28;20120;-59
2023/03/15 12:33:34;;;;;;;4.63;0.90;;;;;;;;;;5009389;28;20187;-58
2023/03/15 12:36:04;;;;;;;5.45;0.80;;;;;;;;;;5011023;28;20907;-58
2023/03/15 12:38:37;;;;;;;4.25;0.90;;;;;;;;;;5005402;28;21346;-58
2023/03/15 12:41:07;;;;;;;5.40;0.97;;;;;;;;;;5012228;28;20049;-59
2023/03/15 12:43:36;;;;;;;4.55;0.82;;;;;;;;;;5000784;28;20826;-60
2023/03/15 12:46:03;;;;;;;4.65;0.95;;;;;;;;;;4994175;28;20838;-60
2023/03/15 12:48:31;;;;;;;4.68;1.08;;;;;;;;;;5009077;28;20044;-59
2023/03/15 12:51:00;;;;;;;4.03;0.82;;;;;;;;;;5007402;28;20079;-59
2023/03/15 12:53:35;;;;;;;8.40;0.90;;;;;;;;;;5005240;28;20056;-59
2023/03/15 12:56:25;;;;;;;5.38;0.88;;;;;;;;;;5003583;28;20133;-59
2023/03/15 12:58:54;;;;;;;6.07;1.02;;;;;;;;;;5009519;28;20038;-59
2023/03/15 13:01:25;;;;;;;4.71;0.70;;;;;;;;;;4657523;28;10000362;-59
2023/03/15 13:03:55;;;;;;;5.40;0.90;;;;;;;;;;5008342;28;20041;-58
2023/03/15 13:06:32;;;;;;;6.03;1.10;;;;;;;;;;4997820;28;20037;-60
2023/03/15 13:09:03;;;;;;;5.18;0.95;;;;;;;;;;5005536;28;20131;-59
2023/03/15 13:11:35;;;;;;;4.25;0.75;;;;;;;;;;5001681;28;20060;-59
2023/03/15 13:14:21;;;;;;;5.00;0.95;;;;;;;;;;5008089;28;20103;-59
2023/03/15 13:16:53;;;;;;;5.18;0.98;;;;;;;;;;5007122;28;20285;-59
2023/03/15 13:19:22;;;;;;;4.97;1.10;;;;;;;;;;4996436;28;20567;-59
2023/03/15 13:22:06;;;;;;;3.78;0.85;;;;;;;;;;4998002;28;20069;-59
2023/03/15 13:24:38;;;;;;;8.55;1.88;;;;;;;;;;5000532;28;20120;-59
2023/03/15 13:27:11;;;;;;;4.78;1.10;;;;;;;;;;5003597;28;20495;-58
2023/03/15 13:29:39;;;;;;;4.28;0.90;;;;;;;;;;5000683;28;20044;-59
2023/03/15 13:32:12;;;;;;;6.63;1.37;;;;;;;;;;5009714;28;20167;-59
2023/03/15 13:34:41;;;;;;;5.22;1.30;;;;;;;;;;5005871;28;20460;-59
2023/03/15 13:37:13;;;;;;;4.35;0.88;;;;;;;;;;4649295;28;10000815;-59
2023/03/15 13:39:51;;;;;;;4.53;1.23;;;;;;;;;;5004357;28;20092;-59
2023/03/15 13:42:23;;;;;;;4.00;0.77;;;;;;;;;;4998355;28;20037;-59
2023/03/15 13:45:12;;;;;;;5.70;1.50;;;;;;;;;;5003244;28;20120;-59
2023/03/15 13:47:40;;;;;;;6.15;1.05;;;;;;;;;;5004875;28;20139;-59
2023/03/15 13:50:12;;;;;;;4.38;0.95;;;;;;;;;;5004557;28;20045;-59
2023/03/15 13:52:40;;;;;;;5.90;1.00;;;;;;;;;;5005621;28;20052;-60
2023/03/15 13:55:08;;;;;;;5.35;0.85;;;;;;;;;;4999682;28;20102;-59
2023/03/15 13:57:37;;;;;;;4.37;1.17;;;;;;;;;;5005896;28;20041;-59
2023/03/15 14:00:10;;;;;;;5.53;0.98;;;;;;;;;;5002211;28;20047;-60
2023/03/15 14:02:44;;;;;;;4.22;0.90;;;;;;;;;;5000110;28;20041;-59
2023/03/15 14:05:26;;;;;;;6.43;1.30;;;;;;;;;;5013442;28;21362;-59
2023/03/15 14:08:01;;;;;;;6.30;1.00;;;;;;;;;;5002959;28;20512;-59
2023/03/15 14:10:31;;;;;;;5.60;0.70;;;;;;;;;;5008320;28;20045;-59
2023/03/15 14:13:16;;;;;;;4.72;0.77;;;;;;;;;;5003040;28;20055;-59
2023/03/15 14:15:44;;;;;;;4.93;0.75;;;;;;;;;;5012123;28;20119;-59
2023/03/15 14:18:16;;;;;;;6.97;1.33;;;;;;;;;;5006700;28;20653;-59
2023/03/15 14:20:45;;;;;;;5.10;1.40;;;;;;;;;;5001883;28;20135;-59
2023/03/15 14:23:15;;;;;;;6.17;1.40;;;;;;;;;;5007958;28;20049;-59
2023/03/15 14:25:43;;;;;;;5.57;1.73;;;;;;;;;;5002539;28;20755;-59
2023/03/15 14:28:14;;;;;;;6.88;1.90;;;;;;;;;;5010674;28;20543;-59
2023/03/15 14:30:42;;;;;;;4.93;1.30;;;;;;;;;;4997601;28;20048;-59
2023/03/15 14:33:23;;;;;;;6.03;1.77;;;;;;;;;;5003684;28;20047;-59
2023/03/15 14:36:05;;;;;;;8.20;1.40;;;;;;;;;;5200527;22;20570;-58
2023/03/15 14:38:38;;;;;;;5.65;1.50;;;;;;;;;;4964728;28;20521;-60
2023/03/15 14:41:11;;;;;;;3.85;0.90;;;;;;;;;;5012883;28;20059;-59
2023/03/15 14:43:42;;;;;;;6.50;1.20;;;;;;;;;;5008945;28;20123;-59
2023/03/15 14:46:09;;;;;;;4.93;1.33;;;;;;;;;;5016835;28;20226;-58
2023/03/15 14:48:37;;;;;;;7.67;1.43;;;;;;;;;;4990953;28;20161;-59
2023/03/15 14:51:05;;;;;;;5.93;1.30;;;;;;;;;;5029094;28;20076;-59
2023/03/15 14:53:34;;;;;;;6.00;1.10;;;;;;;;;;5019136;28;20068;-58
2023/03/15 14:56:03;;;;;;;5.80;1.70;;;;;;;;;;5035395;28;20562;-59
2023/03/15 14:58:31;;;;;;;7.35;1.52;;;;;;;;;;5021697;28;20558;-59